Home > Products > Valid Products > TAF

000
FTUS42 KCAE 301000 AAC
TAFDNL
TAF AMD
KDNL 301001Z 3010/0106 05005KT P6SM BKN035
     FM301600 03006KT P6SM SCT040=



000
FTUS42 KCAE 300800 AAB
TAFAGS
TAF AMD
KAGS 300841Z 3009/0106 VRB03KT P6SM SCT015 OVC040
     FM301300 03003KT P6SM BKN020
     FM301600 03006KT P6SM SCT040=



000
FTUS42 KCAE 300800 AAA
TAFCUB
TAF AMD
KCUB 300841Z 3009/0106 VRB03KT P6SM BKN040
     FM301200 VRB03KT P6SM SCT020 BKN040
     FM301500 03005KT P6SM SCT040=



000
FTUS42 KCAE 300800 AAB
TAFOGB
TAF AMD
KOGB 300841Z 3009/0106 30004KT P6SM BKN040
     FM301400 03004KT P6SM BKN025
     FM301500 03006KT P6SM SCT040=



000
FTUS42 KCAE 300800 AAA
TAFCAE
TAF AMD
KCAE 300841Z 3009/0106 04004KT P6SM BKN040
     FM301200 03003KT P6SM SCT020 BKN040
     FM301500 03005KT P6SM SCT040=



000
FTUS42 KCAE 300800 AAB
TAFDNL
TAF AMD
KDNL 300841Z 3009/0106 05004KT P6SM OVC008
     FM301300 05005KT P6SM BKN020
     FM301600 03006KT P6SM SCT040=



000
FTUS42 KCAE 300800 AAA
TAFDNL
TAF AMD
KDNL 300831Z 3009/0106 05004KT P6SM OVC008
     FM301300 05005KT P6SM BKN020
     FM301600 03006KT P6SM SCT040=



000
FTUS42 KCAE 300700 AAA
TAFOGB
TAF AMD
KOGB 300741Z 3008/0106 05004KT P6SM OVC040
     FM300900 03004KT P6SM OVC020
     FM301400 03004KT P6SM BKN025
     FM301500 03006KT P6SM SCT040=



000
FTUS42 KCAE 300700 AAA
TAFAGS
TAF AMD
KAGS 300705Z 3007/0106 VRB03KT P6SM OVC012
      TEMPO 3008/3012 2SM BR OVC006
     FM301300 03003KT P6SM BKN020
     FM301600 03006KT P6SM SCT040=



000
FTUS42 KCAE 300500
TAFCAE
TAF
KCAE 300523Z 3006/0106 06005KT P6SM BKN015 OVC040
     FM300900 01003KT P6SM OVC007
     FM301200 03003KT P6SM SCT020 BKN040
     FM301500 03005KT P6SM SCT040=



000
FTUS42 KCAE 300500
TAFCUB
TAF
KCUB 300523Z 3006/0106 VRB03KT P6SM BKN015 OVC040
     FM300900 01004KT P6SM OVC007
     FM301200 VRB03KT P6SM SCT020 BKN040
     FM301500 03005KT P6SM SCT040=



000
FTUS42 KCAE 300500
TAFAGS
TAF
KAGS 300523Z 3006/0106 09003KT P6SM OVC015
      TEMPO 3006/3007 5SM BR OVC006
     FM300700 02003KT 1SM BR OVC003
     FM301300 03003KT P6SM BKN020
     FM301600 03006KT P6SM SCT040=



000
FTUS42 KCAE 300500
TAFOGB
TAF
KOGB 300523Z 3006/0106 07004KT P6SM SCT009 OVC035
     FM300700 03005KT 4SM BR OVC008
     FM301400 03005KT P6SM BKN025
     FM301500 03006KT P6SM SCT040=



000
FTUS42 KCAE 300500
TAFDNL
TAF
KDNL 300523Z 3006/0106 07006KT P6SM OVC015
      TEMPO 3006/3007 6SM BR OVC006
     FM300700 03005KT 4SM BR OVC003
     FM301300 03005KT P6SM BKN020
     FM301600 03006KT P6SM SCT040=



000
FTUS42 KCAE 300200 AAA
TAFAGS
TAF AMD
KAGS 300229Z 3002/3024 09003KT P6SM OVC015
      TEMPO 3004/3007 5SM BR OVC006
     FM300700 02003KT 1/2SM FG OVC003
     FM301300 03003KT P6SM BKN020
     FM301600 03006KT P6SM SCT040=



000
FTUS42 KCAE 300200 AAA
TAFDNL
TAF AMD
KDNL 300229Z 3002/3024 07006KT P6SM OVC015
      TEMPO 3004/3007 6SM BR OVC006
     FM300700 03005KT 3SM BR OVC003
     FM301300 03005KT P6SM BKN020
     FM301600 03006KT P6SM SCT040=



000
FTUS42 KCAE 300200 AAA
TAFOGB
TAF AMD
KOGB 300229Z 3002/3024 04004KT P6SM SCT009 OVC020
      TEMPO 3003/3006 5SM -SHRA BR BKN009
     FM300600 03005KT 4SM BR OVC008
     FM301400 03005KT P6SM BKN025
     FM301500 03006KT P6SM SCT040=



000
FTUS42 KCAE 300200 AAB
TAFCAE
TAF AMD
KCAE 300229Z 3002/3024 06005KT P6SM BKN015 OVC040
     FM300900 01003KT P6SM OVC007
     FM301200 03003KT P6SM SCT020 BKN040
     FM301500 03005KT P6SM SCT040=



000
FTUS42 KCAE 300200 AAB
TAFCUB
TAF AMD
KCUB 300229Z 3002/3024 VRB03KT P6SM BKN015 OVC040
     FM300900 01004KT P6SM OVC007
     FM301200 VRB03KT P6SM SCT020 BKN040
     FM301500 03005KT P6SM SCT040=



000
FTUS42 KCAE 300100 AAA
TAFCUB
TAF AMD
KCUB 300146Z 3002/3024 VRB03KT P6SM SCT015 BKN030 OVC040
     FM300700 00000KT P6SM OVC015
     FM301200 VRB03KT P6SM SCT020 BKN040
     FM301500 03005KT P6SM SCT040=



000
FTUS42 KCAE 300100 AAA
TAFCAE
TAF AMD
KCAE 300144Z 3002/3024 06005KT P6SM SCT015 BKN025 OVC035
     FM300600 03003KT P6SM OVC015
     FM301200 03003KT P6SM SCT020 BKN040
     FM301500 03005KT P6SM SCT040=



000
FTUS42 KCAE 292300
TAFOGB
TAF
KOGB 292340Z 3000/3024 05005KT P6SM SCT008 OVC020
     FM300400 03005KT 4SM BR OVC008
     FM301200 03005KT P6SM BKN025
     FM301500 03006KT P6SM SCT040=



000
FTUS42 KCAE 292300
TAFCUB
TAF
KCUB 292340Z 3000/3024 03003KT P6SM OVC015
      TEMPO 3000/3003 5SM -SHRA BR
     FM301200 VRB03KT P6SM SCT020 BKN040
     FM301500 03005KT P6SM SCT040=



000
FTUS42 KCAE 292300
TAFAGS
TAF
KAGS 292340Z 3000/3024 VRB04KT P6SM OVC020
     FM300400 04003KT 4SM BR SCT005 OVC010
     FM300700 02003KT 1/2SM FG OVC003
     FM301300 03003KT P6SM BKN020
     FM301500 03006KT P6SM SCT040=



000
FTUS42 KCAE 292300
TAFDNL
TAF
KDNL 292340Z 3000/3024 06005KT P6SM OVC030
     FM300700 03005KT 2SM BR OVC003
     FM301300 03005KT P6SM BKN020
     FM301500 03006KT P6SM SCT040=



000
FTUS42 KCAE 292300
TAFCAE
TAF
KCAE 292340Z 3000/3024 03006KT P6SM OVC015
      TEMPO 3000/3003 5SM -SHRA BR
     FM301200 03003KT P6SM SCT020 BKN040
     FM301500 03005KT P6SM SCT040=



000
FTUS42 KCAE 292300
TAFCAE
TAF
KCAE 292338Z 3000/3024 03006KT P6SM OVC015
      TEMPO 3000/3003 5SM -SHRA BR
     FM301200 03003KT P6SM SCT020 BKN040
     FM301500 03005KT P6SM SCT040=



000
FTUS42 KCAE 292300
TAFOGB
TAF
KOGB 292338Z 3000/3024 05005KT P6SM SCT008 OVC020
     FM300400 03005KT 4SM BR OVC008
     FM301200 03005KT P6SM BKN025
     FM301500 03006KT P6SM SCT040=



000
FTUS42 KCAE 292300
TAFAGS
TAF
KAGS 292338Z 3000/3024 VRB04KT P6SM OVC020
     FM300400 04003KT 4SM BR SCT005 OVC010
     FM300700 02003KT 1/2SM FG OVC003
     FM301300 03003KT P6SM BKN020
     FM301500 03006KT P6SM SCT040=



000
FTUS42 KCAE 292300
TAFCUB
TAF
KCUB 292338Z 3000/3024 03003KT P6SM OVC015
      TEMPO 3000/3003 5SM -SHRA BR
     FM301200 VRB03KT P6SM SCT020 BKN040
     FM301500 03005KT P6SM SCT040=



000
FTUS42 KCAE 292300
TAFDNL
TAF
KDNL 292338Z 3000/3024 06005KT P6SM OVC030
     FM300700 03005KT 2SM BR OVC003
     FM301300 03005KT P6SM BKN020
     FM301500 03006KT P6SM SCT040=



000
FTUS42 KCAE 292000 AAA
TAFOGB
TAF AMD
KOGB 292040Z 2921/3018 06006KT P6SM -RA SCT020 OVC035
      TEMPO 2921/2923 5SM -SHRA BKN020
     FM300000 05006KT 5SM BR SCT007 OVC020
     FM301200 02005KT P6SM BKN025
     FM301500 03005KT P6SM SCT040=



000
FTUS42 KCAE 292000 AAA
TAFCUB
TAF AMD
KCUB 292040Z 2921/3018 VRB04KT P6SM VCSH SCT010 BKN025 OVC035
      TEMPO 2921/2923 5SM -SHRA BKN010
     FM300000 VRB03KT P6SM SCT025 OVC050
     FM301200 VRB03KT P6SM SCT030 BKN060
     FM301500 03005KT P6SM SCT040=



000
FTUS42 KCAE 292000 AAA
TAFAGS
TAF AMD
KAGS 292040Z 2921/3018 09007KT P6SM SCT015 OVC035
      TEMPO 2921/2923 5SM -SHRA SCT008 BKN015
     FM300400 06004KT 4SM BR SCT005 OVC010
     FM300700 03004KT 4SM BR OVC003
     FM301300 03005KT P6SM SCT015 BKN035
     FM301500 03006KT P6SM SCT040=



000
FTUS42 KCAE 292000 AAA
TAFCAE
TAF AMD
KCAE 292040Z 2921/3018 09008KT P6SM VCSH SCT010 BKN025 OVC050
      TEMPO 2921/2923 5SM -SHRA BKN010
     FM300000 06005KT P6SM SCT025 OVC050
     FM301200 03003KT P6SM SCT030 BKN060
     FM301500 03005KT P6SM SCT040=



000
FTUS42 KCAE 292000 AAA
TAFDNL
TAF AMD
KDNL 292040Z 2921/3018 03006KT P6SM SCT008 OVC025
      TEMPO 2921/2923 5SM -SHRA BKN015
     FM300400 03005KT 5SM BR SCT005 OVC010
     FM300700 03005KT 4SM BR OVC003
     FM301300 03005KT P6SM SCT015 BKN035
     FM301500 03006KT P6SM SCT040=



000
FTUS42 KCAE 291700
TAFAGS
TAF
KAGS 291737Z 2918/3018 03006KT 6SM -SHRA BR SCT009 BKN035 OVC045
      TEMPO 2918/2922 5SM -SHRA BR SCT005 OVC009
     FM300400 06004KT 4SM BR SCT005 BKN015
     FM301300 02006KT P6SM SCT015 BKN035
     FM301500 03005KT P6SM SCT040=



000
FTUS42 KCAE 291700
TAFDNL
TAF
KDNL 291737Z 2918/3018 03006KT 6SM -SHRA BR SCT009 BKN035 OVC045
      TEMPO 2918/2922 5SM -SHRA BR SCT005 OVC009
     FM300400 06004KT 5SM BR SCT005 BKN015
     FM301300 02006KT P6SM SCT015 BKN035
     FM301500 03005KT P6SM SCT040=



000
FTUS42 KCAE 291700
TAFOGB
TAF
KOGB 291737Z 2918/3018 04006KT 6SM -SHRA BR SCT012 BKN020 OVC035
      TEMPO 2918/2922 4SM -SHRA BR SCT007 BKN018
     FM300400 05004KT 5SM BR SCT007 BKN015
     FM301200 VRB04KT P6SM BKN025
     FM301500 03005KT P6SM SCT040=



000
FTUS42 KCAE 291700
TAFCUB
TAF
KCUB 291737Z 2918/3018 04006KT P6SM SCT050 BKN090
      TEMPO 2918/2922 5SM -SHRA BR SCT007 BKN015
     FM300000 VRB03KT P6SM SCT025 BKN050
     FM301200 VRB03KT P6SM SCT030 BKN060
     FM301500 03005KT P6SM SCT040=



000
FTUS42 KCAE 291700
TAFCAE
TAF
KCAE 291737Z 2918/3018 04006KT P6SM SCT050 BKN090
      TEMPO 2918/2922 5SM -SHRA BR SCT007 BKN015
     FM300000 VRB03KT P6SM SCT025 BKN050
     FM301200 VRB03KT P6SM SCT030 BKN060
     FM301500 03005KT P6SM SCT040=



000
FTUS42 KCAE 291500 AAB
TAFDNL
TAF AMD
KDNL 291501Z 2915/3012 03006KT P6SM VCSH SCT005 BKN010 OVC014
      TEMPO 2915/2918 3SM -SHRA BR OVC005
     FM300100 06003KT 6SM BR SCT005 BKN020=



000
FTUS42 KCAE 291500 AAB
TAFAGS
TAF AMD
KAGS 291501Z 2915/3012 03006KT 6SM -SHRA BR SCT005 OVC009
      TEMPO 2915/2918 3SM -SHRA BR OVC007
     FM300100 06003KT 6SM BR SCT005 BKN020=



000
FTUS42 KCAE 291500 AAA
TAFOGB
TAF AMD
KOGB 291501Z 2915/3012 04006KT 5SM -RA BR SCT012 BKN025 OVC035
      TEMPO 2915/2918 -SHRA BR SCT005 OVC012
     FM300400 05004KT 6SM BR BKN015
     FM300900 04005KT P6SM BKN035=



000
FTUS42 KCAE 291500 AAA
TAFCAE
TAF AMD
KCAE 291501Z 2915/3012 04006KT 6SM -SHRA BR SCT005 OVC090
     FM291700 04006KT 5SM -SHRA BR SCT015 BKN035
      TEMPO 2917/2921 4SM -SHRA BR SCT007 BKN015
     FM300000 VRB03KT P6SM BKN050
     FM300900 VRB03KT P6SM SCT250=



000
FTUS42 KCAE 291500 AAA
TAFCUB
TAF AMD
KCUB 291501Z 2915/3012 04006KT 6SM -RA BR SCT005 OVC090
     FM291700 04006KT 5SM -SHRA BR SCT015 BKN035
      TEMPO 2917/2921 4SM -SHRA BR SCT007 BKN015
     FM300000 VRB03KT P6SM BKN050
     FM300900 VRB03KT P6SM SCT250=



000
FTUS42 KCAE 291300 AAA
TAFDNL
TAF AMD
KDNL 291351Z 2914/3012 03006KT P6SM VCSH SCT007 OVC014
      TEMPO 2914/2918 3SM -SHRA BR OVC007
     FM300100 06003KT 6SM BR BKN020=



000
FTUS42 KCAE 291300 AAA
TAFAGS
TAF AMD
KAGS 291350Z 2914/3012 03006KT P6SM VCSH SCT007 OVC014
      TEMPO 2914/2918 3SM -SHRA BR OVC007
     FM300100 06003KT 6SM BR BKN020=



000
FTUS42 KCAE 291100
TAFDNL
TAF
KDNL 291139Z 2912/3012 01004KT P6SM VCSH SCT007 OVC014
     FM291500 04005KT 6SM -RA BR SCT007 OVC015
      TEMPO 2916/2920 4SM -SHRA BR OVC007
     FM300100 06003KT 6SM BR BKN020=



000
FTUS42 KCAE 291100
TAFCAE
TAF
KCAE 291139Z 2912/3012 06004KT P6SM VCSH SCT015 OVC050
     FM291400 04006KT 6SM -RA BR SCT007 OVC025
      TEMPO 2916/2920 4SM -SHRA BR SCT007 BKN015
     FM300000 VRB03KT P6SM BKN050
     FM300900 VRB03KT P6SM SCT250=



000
FTUS42 KCAE 291100
TAFOGB
TAF
KOGB 291139Z 2912/3012 04004KT P6SM VCSH SCT012 OVC060
      TEMPO 2912/2916 -SHRA SCT008 OVC012
     FM291600 04006KT 5SM -RA BR SCT008 OVC015
     FM300400 05004KT 6SM BR BKN015
     FM300900 04005KT P6SM BKN035=



000
FTUS42 KCAE 291100
TAFCUB
TAF
KCUB 291139Z 2912/3012 VRB03KT P6SM VCSH SCT015 OVC060
     FM291400 04006KT 6SM -RA BR SCT007 OVC025
      TEMPO 2916/2920 4SM -SHRA BR SCT007 BKN015
     FM300000 VRB03KT P6SM BKN050
     FM300900 VRB03KT P6SM SCT250=



000
FTUS42 KCAE 291100
TAFAGS
TAF
KAGS 291139Z 2912/3012 01004KT P6SM VCSH SCT007 OVC014
     FM291500 04005KT 6SM -RA BR SCT007 OVC015
      TEMPO 2916/2920 4SM -SHRA BR OVC007
     FM300100 06003KT 6SM BR BKN020=



000
FTUS42 KCAE 290800 AAA
TAFCAE
TAF AMD
KCAE 290855Z 2909/3006 05004KT P6SM VCSH OVC025
      TEMPO 2909/2912 BKN015
     FM291200 03004KT P6SM -RA BKN015 OVC025
     FM291400 04006KT 4SM -RA BR SCT007 OVC012
     FM300000 VRB03KT P6SM BKN050=



000
FTUS42 KCAE 290800 AAA
TAFDNL
TAF AMD
KDNL 290855Z 2909/3006 03004KT P6SM VCSH SCT012 OVC025
     FM291000 04004KT P6SM -RA SCT007 OVC012
      TEMPO 2916/2920 4SM -SHRA BR OVC007
     FM300000 06003KT 6SM BR BKN020=



000
FTUS42 KCAE 290800 AAA
TAFAGS
TAF AMD
KAGS 290855Z 2909/3006 02004KT P6SM VCSH SCT012 OVC025
     FM291000 04004KT P6SM -RA SCT007 OVC012
      TEMPO 2916/2920 4SM -SHRA BR OVC007
     FM300000 06003KT 6SM BR BKN020=



000
FTUS42 KCAE 290800 AAA
TAFOGB
TAF AMD
KOGB 290855Z 2909/3006 04004KT P6SM VCSH OVC008
      TEMPO 2909/2913 -SHRA SCT008 OVC015
     FM291400 04006KT 5SM -RA BR BKN008 OVC015
     FM300400 05004KT 6SM BR BKN015=



000
FTUS42 KCAE 290800 AAA
TAFCUB
TAF AMD
KCUB 290855Z 2909/3006 00000KT P6SM VCSH OVC025
      TEMPO 2909/2912 BKN015
     FM291200 03004KT P6SM -RA BKN015 OVC025
     FM291400 04006KT 4SM -RA BR SCT007 OVC012
     FM300000 VRB03KT P6SM BKN050=



000
FTUS42 KCAE 290600 CCA
TAFAGS
TAF COR
KAGS 290607Z 2906/3006 01003KT P6SM BKN035
     FM290900 03004KT P6SM SCT012 OVC025
     FM291400 04004KT P6SM -RA SCT007 OVC012
      TEMPO 2916/2920 4SM -SHRA BR OVC007
     FM300000 06003KT 6SM BR BKN020=



000
FTUS42 KCAE 290600 CCA
TAFDNL
TAF COR
KDNL 290607Z 2906/3006 01004KT P6SM BKN035
     FM290900 03004KT P6SM SCT012 OVC025
     FM291400 04004KT P6SM -RA SCT007 OVC012
      TEMPO 2916/2920 4SM -SHRA BR OVC007
     FM300000 06003KT 6SM BR BKN020=



000
FTUS42 KCAE 290500
TAFOGB
TAF
KOGB 290526Z 2906/3006 04004KT P6SM SCT015 OVC025
     FM291400 04006KT 5SM -RA BR OVC015
     FM300400 05004KT 6SM BR BKN025=



000
FTUS42 KCAE 290500
TAFCUB
TAF
KCUB 290526Z 2906/3006 02004KT P6SM OVC050
     FM291200 03004KT P6SM SCT025 OVC035
     FM291600 04006KT 5SM -RA BR SCT008 OVC025
     FM300000 VRB03KT P6SM BKN050=



000
FTUS42 KCAE 290500
TAFCAE
TAF
KCAE 290526Z 2906/3006 02004KT P6SM OVC050
     FM291200 03004KT P6SM SCT025 OVC035
     FM291600 04006KT 5SM -RA BR SCT008 OVC025
     FM300000 VRB03KT P6SM BKN050=



000
FTUS42 KCAE 290500
TAFAGS
TAF
KAGS 290526Z 2906/3006 03004KT P6SM SCT012 OVC025
     FM291400 04004KT P6SM -RA SCT007 OVC012
      TEMPO 2916/2920 4SM -SHRA BR OVC007
     FM300000 06003KT 6SM BR BKN020=



000
FTUS42 KCAE 290500
TAFDNL
TAF
KDNL 290526Z 2906/3006 03004KT P6SM SCT012 OVC025
     FM291400 04004KT P6SM -RA SCT007 OVC012
      TEMPO 2916/2920 4SM -SHRA BR OVC007
     FM300000 06003KT 6SM BR BKN020=



000
FTUS42 KCAE 290200 AAA
TAFCUB
TAF AMD
KCUB 290231Z 2903/2924 VRB04KT P6SM SCT020 OVC040
     FM290900 VRB04KT P6SM OVC020
     FM291600 04005KT 3SM -RA BR SCT008 OVC015=



000
FTUS42 KCAE 290200 AAB
TAFAGS
TAF AMD
KAGS 290231Z 2903/2924 06004KT P6SM SCT012 OVC028
     FM290800 04004KT P6SM SCT007 OVC012
     FM291200 04006KT 3SM -SHRA BR OVC007=



000
FTUS42 KCAE 290200 AAB
TAFDNL
TAF AMD
KDNL 290231Z 2903/2924 06004KT P6SM SCT012 OVC028
     FM290800 04004KT P6SM SCT007 OVC012
     FM291200 04006KT 3SM -SHRA BR OVC007=



000
FTUS42 KCAE 290200 AAA
TAFOGB
TAF AMD
KOGB 290231Z 2903/2924 04004KT P6SM SCT012 OVC020
     FM290600 04004KT 3SM BR SCT008 OVC012
     FM291100 04008KT 3SM -RA BR OVC008=



000
FTUS42 KCAE 290200 AAA
TAFCAE
TAF AMD
KCAE 290231Z 2903/2924 06004KT P6SM SCT020 OVC040
     FM290900 03004KT P6SM OVC020
     FM291600 04006KT 3SM -RA BR SCT008 OVC015=



000
FTUS42 KCAE 290100 AAA
TAFAGS
TAF AMD
KAGS 290139Z 2902/2924 06004KT P6SM OVC028
     FM290800 04004KT P6SM SCT007 OVC012
     FM291200 04006KT 3SM -SHRA BR OVC007=



000
FTUS42 KCAE 290100 AAA
TAFDNL
TAF AMD
KDNL 290139Z 2902/2924 06004KT P6SM OVC028
     FM290800 04004KT P6SM SCT007 OVC012
     FM291200 04006KT 3SM -SHRA BR OVC007=



000
FTUS42 KCAE 282300
TAFCAE
TAF
KCAE 282325Z 2900/2924 06004KT P6SM SCT020 OVC040
     FM290900 03004KT P6SM OVC020
     FM291600 04006KT 3SM -RA BR SCT008 OVC015=



000
FTUS42 KCAE 282300
TAFCUB
TAF
KCUB 282325Z 2900/2924 VRB04KT P6SM SCT020 OVC040
     FM290900 VRB04KT P6SM OVC020
     FM291600 04005KT 3SM -RA BR SCT008 OVC015=



000
FTUS42 KCAE 282300
TAFAGS
TAF
KAGS 282325Z 2900/2924 05004KT P6SM SCT025 OVC035
     FM290700 04004KT P6SM SCT007 OVC012
     FM291200 04006KT 3SM -SHRA BR OVC007=



000
FTUS42 KCAE 282300
TAFOGB
TAF
KOGB 282325Z 2900/2924 04004KT P6SM SCT015 OVC020
     FM290600 04004KT 3SM BR SCT008 OVC012
     FM291100 04008KT 3SM -RA BR OVC008=



000
FTUS42 KCAE 282300
TAFDNL
TAF
KDNL 282325Z 2900/2924 05004KT P6SM SCT025 OVC035
     FM290700 04004KT P6SM SCT007 OVC012
     FM291200 04006KT 3SM -SHRA BR OVC007=



000
FTUS42 KCAE 282200 AAB
TAFDNL
TAF AMD
KDNL 282202Z 2822/2918 05004KT P6SM SCT025 OVC035
     FM290700 04004KT P6SM SCT007 OVC012
     FM291200 04006KT 3SM -SHRA BR OVC007=



000
FTUS42 KCAE 282200 AAC
TAFOGB
TAF AMD
KOGB 282202Z 2822/2918 04004KT P6SM SCT015 OVC020
     FM290600 04004KT 3SM BR SCT008 OVC012
     FM291100 04008KT 3SM -RA BR OVC008=



000
FTUS42 KCAE 282200 AAC
TAFCUB
TAF AMD
KCUB 282202Z 2822/2918 VRB04KT P6SM SCT020 OVC040
     FM290900 VRB04KT P6SM OVC020
     FM291600 04005KT 3SM -RA BR SCT008 OVC015=



000
FTUS42 KCAE 282200 AAB
TAFAGS
TAF AMD
KAGS 282202Z 2822/2918 05004KT P6SM SCT025 OVC035
     FM290700 04004KT P6SM SCT007 OVC012
     FM291200 04006KT 3SM -SHRA BR OVC007=



000
FTUS42 KCAE 282200 AAB
TAFCAE
TAF AMD
KCAE 282202Z 2822/2918 06004KT P6SM SCT020 OVC040
     FM290900 03004KT P6SM OVC020
     FM291600 04006KT 3SM -RA BR SCT008 OVC015=



000
FTUS42 KCAE 282000 AAB
TAFOGB
TAF AMD
KOGB 282034Z 2821/2918 04005KT P6SM VCSH SCT015 OVC020
     FM291300 04006KT 3SM -SHRA BR SCT008 OVC015
     FM291500 04008KT 3SM -SHRA BR OVC008=



000
FTUS42 KCAE 281900 AAA
TAFDNL
TAF AMD
KDNL 282000Z 2820/2918 05005KT P6SM SCT025 BKN035
     FM290300 VRB03KT P6SM SCT010 OVC020
     FM290600 VRB03KT 6SM BR SCT008 OVC012
     FM291200 04006KT 3SM -SHRA BR OVC008=



000
FTUS42 KCAE 281900 AAA
TAFAGS
TAF AMD
KAGS 281959Z 2820/2918 05005KT P6SM SCT025 BKN035
     FM290300 VRB03KT P6SM SCT010 OVC020
     FM290600 VRB03KT 6SM BR SCT008 OVC012
     FM291200 04006KT 3SM -SHRA BR OVC008=



000
FTUS42 KCAE 281900 AAA
TAFOGB
TAF AMD
KOGB 281956Z 2820/2918 05005KT P6SM BKN028
     FM290700 04005KT P6SM VCSH SCT015 OVC020
     FM291300 04006KT 3SM -SHRA BR SCT008 OVC015=



000
FTUS42 KCAE 281900 AAB
TAFCUB
TAF AMD
KCUB 281954Z 2820/2918 VRB04KT P6SM SCT020 BKN040
     FM290700 VRB04KT P6SM VCSH OVC020
     FM291400 04005KT 3SM -SHRA BR SCT008 OVC015=



000
FTUS42 KCAE 281900 AAA
TAFCAE
TAF AMD
KCAE 281953Z 2820/2918 03004KT P6SM SCT020 BKN040
     FM290700 03005KT P6SM VCSH OVC020
     FM291400 04006KT 3SM -SHRA BR SCT008 OVC015=



000
FTUS42 KCAE 281700 AAA
TAFCUB
TAF AMD
KCUB 281752Z 2818/2918 05005KT P6SM SCT028 BKN040 OVC180
      TEMPO 2818/2820 BKN028 OVC040
     FM290000 VRB03KT P6SM OVC040
     FM290700 03005KT P6SM VCSH OVC020
     FM291400 04006KT 5SM -SHRA BR SCT010 OVC015=



000
FTUS42 KCAE 281700
TAFCUB
TAF
KCUB 281740Z 2818/2918 05005KT P6SM BKN028 BKN040 OVC180
      TEMPO 2818/2820 BKN028 OVC040
     FM290000 VRB03KT P6SM OVC040
     FM290700 03005KT P6SM VCSH OVC020
     FM291400 04006KT 5SM -SHRA BR SCT010 OVC015=



000
FTUS42 KCAE 281700
TAFCAE
TAF
KCAE 281740Z 2818/2918 05007KT P6SM SCT028 BKN040 OVC180
      TEMPO 2818/2820 BKN028 OVC040
     FM290000 VRB03KT P6SM OVC040
     FM290700 03005KT P6SM VCSH OVC020
     FM291400 04006KT 5SM -SHRA BR SCT010 OVC015=



000
FTUS42 KCAE 281700
TAFAGS
TAF
KAGS 281740Z 2818/2918 05007KT P6SM SCT026 BKN035 OVC150
      TEMPO 2818/2820 BKN026 OVC035
     FM290400 VRB03KT P6SM SCT010 OVC020
     FM290600 VRB03KT 6SM BR VCSH BKN007 OVC025
     FM291200 04006KT 5SM -SHRA BR BKN010 OVC015=



000
FTUS42 KCAE 281700
TAFOGB
TAF
KOGB 281740Z 2818/2918 05007KT P6SM BKN020 OVC050
      TEMPO 2818/2820 SCT020 BKN050 OVC200
     FM290000 VRB03KT P6SM OVC040
     FM290700 04005KT P6SM VCSH SCT015 OVC020
     FM291300 04006KT 5SM -SHRA BR SCT010 OVC015=



000
FTUS42 KCAE 281700
TAFDNL
TAF
KDNL 281740Z 2818/2918 05007KT P6SM SCT026 BKN035 OVC150
      TEMPO 2818/2820 BKN026 OVC035
     FM290400 VRB03KT P6SM SCT010 OVC020
     FM290600 VRB03KT P6SM VCSH BKN007 OVC025
     FM291200 04006KT 5SM -SHRA BR BKN010 OVC015=



000
FTUS42 KCAE 281500 AAA
TAFAGS
TAF AMD
KAGS 281512Z 2815/2912 05007KT P6SM OVC050
     FM281700 05007KT P6SM SCT020 BKN050
     FM290500 VRB03KT P6SM OVC015
     FM290900 VRB03KT 6SM BR VCSH BKN007 OVC025=



000
FTUS42 KCAE 281500 AAB
TAFOGB
TAF AMD
KOGB 281512Z 2815/2912 05007KT P6SM BKN020 OVC050
      TEMPO 2815/2818 SCT020 BKN050 OVC200
     FM290000 VRB03KT P6SM OVC040
     FM290700 04005KT P6SM OVC015=



000
FTUS42 KCAE 281500 AAA
TAFCAE
TAF AMD
KCAE 281512Z 2815/2912 05007KT P6SM BKN050 OVC200
     FM290000 VRB03KT P6SM OVC040
     FM290700 03005KT P6SM OVC015=



000
FTUS42 KCAE 281500 AAA
TAFCUB
TAF AMD
KCUB 281512Z 2815/2912 05005KT P6SM BKN050 OVC200
     FM290000 00000KT P6SM OVC040
     FM290700 03005KT P6SM OVC015=



000
FTUS42 KCAE 281500 AAA
TAFDNL
TAF AMD
KDNL 281512Z 2815/2912 05007KT P6SM OVC050
     FM281700 05007KT P6SM SCT020 BKN050
     FM290500 VRB03KT P6SM OVC015
     FM290900 VRB03KT P6SM VCSH BKN007 OVC025=



000
FTUS42 KCAE 281200 AAA
TAFOGB
TAF AMD
KOGB 281213Z 2812/2912 05007KT P6SM BKN050 OVC200
      TEMPO 2812/2814 BKN020 OVC050
     FM290000 VRB03KT P6SM OVC040
     FM290700 04005KT P6SM OVC015=



000
FTUS42 KCAE 281100
TAFAGS
TAF
KAGS 281137Z 2812/2912 01004KT P6SM OVC050
     FM281700 05006KT P6SM SCT020 BKN050
     FM290500 VRB03KT P6SM OVC015
     FM290900 VRB03KT 6SM BR VCSH BKN007 OVC025=



000
FTUS42 KCAE 281100
TAFDNL
TAF
KDNL 281137Z 2812/2912 01004KT P6SM OVC050
     FM281700 05006KT P6SM SCT020 BKN050
     FM290500 VRB03KT P6SM OVC015
     FM290900 VRB03KT P6SM VCSH BKN007 OVC025=



000
FTUS42 KCAE 281100
TAFCAE
TAF
KCAE 281137Z 2812/2912 05007KT P6SM BKN050 OVC200
     FM290000 VRB03KT P6SM OVC040
     FM290700 03005KT P6SM OVC015=



000
FTUS42 KCAE 281100
TAFCUB
TAF
KCUB 281137Z 2812/2912 05005KT P6SM BKN050 OVC200
     FM290000 00000KT P6SM OVC040
     FM290700 03005KT P6SM OVC015=



000
FTUS42 KCAE 281100
TAFOGB
TAF
KOGB 281137Z 2812/2912 05007KT P6SM BKN050 OVC200
     FM290000 VRB03KT P6SM OVC040
     FM290700 04005KT P6SM OVC015=



000
FTUS42 KCAE 280900 AAA
TAFCUB
TAF AMD
KCUB 280912Z 2809/2906 06004KT P6SM OVC050
      TEMPO 2812/2816 BKN025=



000
FTUS42 KCAE 280900 AAA
TAFDNL
TAF AMD
KDNL 280912Z 2809/2906 04004KT P6SM BKN035
      TEMPO 2812/2816 BKN025
     FM281700 05006KT P6SM SCT020 BKN040=



000
FTUS42 KCAE 280900 AAA
TAFCAE
TAF AMD
KCAE 280912Z 2809/2906 06006KT P6SM OVC050
      TEMPO 2812/2816 BKN025=



000
FTUS42 KCAE 280900 AAA
TAFAGS
TAF AMD
KAGS 280912Z 2809/2906 04004KT P6SM BKN035
      TEMPO 2812/2816 BKN025
     FM281700 05006KT P6SM SCT020 BKN040=



000
FTUS42 KCAE 280900 AAA
TAFOGB
TAF AMD
KOGB 280912Z 2809/2906 04006KT P6SM VCSH BKN035
      TEMPO 2812/2816 BKN025
     FM281800 06007KT P6SM SCT020 BKN050=



000
FTUS42 KCAE 280600 CCA
TAFOGB
TAF COR
KOGB 280603Z 2806/2906 04006KT P6SM VCSH BKN035
      TEMPO 2808/2812 BKN025
     FM281800 06007KT P6SM SCT020 BKN050=



000
FTUS42 KCAE 280500
TAFCAE
TAF
KCAE 280526Z 2806/2906 06006KT P6SM SCT025 OVC050
      TEMPO 2812/2816 BKN025=



000
FTUS42 KCAE 280500
TAFAGS
TAF
KAGS 280526Z 2806/2906 VRB03KT P6SM VCSH SCT020 OVC040
     FM280800 04004KT P6SM SCT008 BKN025
     FM281700 05006KT P6SM SCT020 BKN040=



000
FTUS42 KCAE 280500
TAFCUB
TAF
KCUB 280526Z 2806/2906 06004KT P6SM SCT025 OVC050
      TEMPO 2812/2816 BKN025=



000
FTUS42 KCAE 280500
TAFDNL
TAF
KDNL 280526Z 2806/2906 VRB03KT P6SM VCSH SCT020 OVC040
     FM280800 04004KT P6SM SCT008 BKN025
     FM281700 05006KT P6SM SCT020 BKN040=



000
FTUS42 KCAE 280500
TAFOGB
TAF
KOGB 280526Z 2806/2906 04006KT P6SM VCSH BKN025
      TEMPO 2810/2814 BKN015
     FM281800 06007KT P6SM SCT020 BKN050=



000
FTUS42 KCAE 280200 AAA
TAFAGS
TAF AMD
KAGS 280240Z 2803/2824 05004KT P6SM SCT020 OVC040
     FM280800 04005KT P6SM SCT008 OVC015
     FM281500 05008KT P6SM SCT020 BKN035=



000
FTUS42 KCAE 280200 AAA
TAFCUB
TAF AMD
KCUB 280240Z 2803/2824 VRB03KT P6SM SCT025 OVC040
     FM281000 VRB03KT P6SM OVC025
     FM281500 06007KT P6SM BKN035=



000
FTUS42 KCAE 280200 AAA
TAFDNL
TAF AMD
KDNL 280240Z 2803/2824 05004KT P6SM SCT020 OVC040
     FM280900 04005KT P6SM SCT008 OVC015
     FM281500 05008KT P6SM SCT020 BKN035=



000
FTUS42 KCAE 280200 AAB
TAFOGB
TAF AMD
KOGB 280240Z 2803/2824 05005KT P6SM BKN025
     FM280900 05005KT P6SM OVC015
     FM281500 06008KT P6SM SCT020 BKN035=



000
FTUS42 KCAE 280200 AAA
TAFCAE
TAF AMD
KCAE 280240Z 2803/2824 04004KT P6SM SCT025 OVC040
     FM281000 04005KT P6SM OVC025
     FM281500 06007KT P6SM BKN035=



000
FTUS42 KCAE 280100 AAA
TAFOGB
TAF AMD
KOGB 280128Z 2801/2824 05005KT P6SM BKN025
     FM280900 05005KT P6SM BKN015
     FM281500 06008KT P6SM SCT020 BKN035=



000
FTUS42 KCAE 272300
TAFCUB
TAF
KCUB 272321Z 2800/2824 VRB03KT P6SM BKN050
     FM281000 VRB03KT P6SM BKN025
     FM281500 06007KT P6SM BKN035=



000
FTUS42 KCAE 272300
TAFAGS
TAF
KAGS 272321Z 2800/2824 05004KT P6SM BKN040
     FM280600 04005KT P6SM SCT008 BKN015
     FM281500 05008KT P6SM SCT020 BKN035=



000
FTUS42 KCAE 272300
TAFCAE
TAF
KCAE 272321Z 2800/2824 04004KT P6SM OVC050
     FM281000 04005KT P6SM BKN025
     FM281500 06007KT P6SM BKN035=



000
FTUS42 KCAE 272300
TAFDNL
TAF
KDNL 272321Z 2800/2824 05004KT P6SM BKN040
     FM280600 04005KT P6SM SCT008 BKN015
     FM281500 05008KT P6SM SCT020 BKN035=



000
FTUS42 KCAE 272300
TAFOGB
TAF
KOGB 272321Z 2800/2824 04005KT P6SM BKN040
     FM280900 04005KT P6SM BKN015
     FM281500 05008KT P6SM SCT020 BKN035=



000
FTUS42 KCAE 272000 AAA
TAFOGB
TAF AMD
KOGB 272042Z 2721/2818 04006KT P6SM BKN045
     FM280900 04005KT P6SM BKN015
     FM281500 05008KT P6SM BKN025=



000
FTUS42 KCAE 272000 AAA
TAFDNL
TAF AMD
KDNL 272042Z 2721/2818 04006KT P6SM BKN040
     FM280800 04005KT P6SM SCT008 BKN015=



000
FTUS42 KCAE 272000 AAA
TAFCAE
TAF AMD
KCAE 272042Z 2721/2818 05009KT P6SM BKN045
     FM280000 05004KT P6SM SCT050
     FM281000 04005KT P6SM BKN025=



000
FTUS42 KCAE 272000 AAA
TAFCUB
TAF AMD
KCUB 272042Z 2721/2818 05009KT P6SM BKN045
     FM280000 05004KT P6SM BKN050
     FM281000 04005KT P6SM BKN025=



000
FTUS42 KCAE 272000 AAA
TAFAGS
TAF AMD
KAGS 272042Z 2721/2818 03009KT P6SM BKN040
     FM280800 04005KT P6SM SCT008 BKN015=



000
FTUS42 KCAE 271700
TAFOGB
TAF
KOGB 271735Z 2718/2818 04006KT P6SM BKN045
     FM280900 04005KT P6SM BKN015
     FM281500 05008KT P6SM BKN025=



000
FTUS42 KCAE 271700
TAFCUB
TAF
KCUB 271735Z 2718/2818 04008KT P6SM SCT040
     FM272100 05009KT P6SM BKN045
     FM280000 05004KT P6SM BKN050
     FM281000 04005KT P6SM BKN025=



000
FTUS42 KCAE 271700
TAFCAE
TAF
KCAE 271735Z 2718/2818 05008KT P6SM SCT040
     FM272100 05009KT P6SM BKN045
     FM280000 05004KT P6SM SCT050
     FM281000 04005KT P6SM BKN025=



000
FTUS42 KCAE 271700
TAFAGS
TAF
KAGS 271735Z 2718/2818 03009KT P6SM BKN040
     FM280800 04005KT P6SM SCT008 BKN015=



000
FTUS42 KCAE 271700
TAFDNL
TAF
KDNL 271735Z 2718/2818 04006KT P6SM BKN040
     FM280800 04005KT P6SM SCT008 BKN015=



000
FTUS42 KCAE 271400 AAA
TAFDNL
TAF AMD
KDNL 271456Z 2715/2812 04006KT P6SM BKN045
     FM271800 06007KT P6SM BKN050
     FM280800 04005KT P6SM BKN015=



000
FTUS42 KCAE 271400 AAA
TAFCUB
TAF AMD
KCUB 271456Z 2715/2812 05008KT P6SM SCT040
     FM271800 05009KT P6SM BKN045
     FM280000 05004KT P6SM BKN250
     FM281000 04005KT P6SM BKN025=



000
FTUS42 KCAE 271400 AAA
TAFCAE
TAF AMD
KCAE 271456Z 2715/2812 05008G15KT P6SM SCT040
     FM271800 05009KT P6SM BKN045
     FM280000 05004KT P6SM BKN250
     FM281000 04005KT P6SM BKN025=



000
FTUS42 KCAE 271400 AAA
TAFOGB
TAF AMD
KOGB 271456Z 2715/2812 06008KT P6SM BKN045
     FM280000 05008KT P6SM SCT050 BKN250
     FM280900 04005KT P6SM BKN015=



000
FTUS42 KCAE 271400 AAA
TAFAGS
TAF AMD
KAGS 271456Z 2715/2812 05006KT P6SM BKN045
     FM271800 06007KT P6SM BKN050
     FM280800 04005KT P6SM BKN015=



000
FTUS42 KCAE 271100
TAFOGB
TAF
KOGB 271120Z 2712/2812 04008KT P6SM OVC045
     FM280000 05008KT P6SM SCT050 BKN250
     FM280900 04005KT P6SM BKN015=



000
FTUS42 KCAE 271100
TAFAGS
TAF
KAGS 271120Z 2712/2812 02006KT P6SM OVC040
     FM271800 06007KT P6SM BKN050
     FM280800 04005KT P6SM BKN015=



000
FTUS42 KCAE 271100
TAFCUB
TAF
KCUB 271120Z 2712/2812 03004KT P6SM BKN040
     FM271700 05007KT P6SM SCT050
     FM280000 05004KT P6SM BKN250
     FM281000 04005KT P6SM BKN025=



000
FTUS42 KCAE 271100
TAFDNL
TAF
KDNL 271120Z 2712/2812 04006KT P6SM OVC040
     FM271800 06007KT P6SM BKN050
     FM280800 04005KT P6SM BKN015=



000
FTUS42 KCAE 271100
TAFCAE
TAF
KCAE 271120Z 2712/2812 03005KT P6SM BKN040
     FM271700 05008KT P6SM SCT050
     FM280000 05004KT P6SM BKN250
     FM281000 04005KT P6SM BKN025=



    US Dept of Commerce
    National Oceanic and Atmospheric Administration
    National Weather Service
    1325 East West Highway
    Silver Spring, MD 20910
    Page Author: NWS Internet Services Team
Disclaimer
Information Quality
Credits
Glossary
Privacy Policy
Freedom of Information Act (FOIA)
About Us
Career Opportunities